Time;durP1;ratioP1;P1;durP2;ratioP2;P2;SDS_P1;SDS_P2;PMS_P1;PMS_P2;Temp;Humidity;BMP_temperature;BMP_pressure;BME280_temperature;BME280_humidity;BME280_pressure;Samples;Min_cycle;Max_cycle;Signal;HPM_P1;HPM_P2
2023/05/04 00:01:42;;;;;;;5.10;2.10;;;;;;;11.81;83.05;101789.59;105914;1256;60542;-86
2023/05/04 00:04:09;;;;;;;3.90;2.70;;;;;;;11.78;83.35;101788.16;105994;1252;73782;-86
2023/05/04 00:06:37;;;;;;;5.40;2.50;;;;;;;11.74;83.39;101793.21;106018;1254;64818;-87
2023/05/04 00:09:05;;;;;;;4.30;2.70;;;;;;;11.71;83.93;101797.39;106141;1254;73966;-85
2023/05/04 00:11:32;;;;;;;5.60;2.80;;;;;;;11.67;84.30;101801.46;108682;1251;60481;-86
2023/05/04 00:13:59;;;;;;;6.40;2.50;;;;;;;11.61;84.50;101805.71;106889;1251;60367;-87
2023/05/04 00:16:26;;;;;;;3.50;2.90;;;;;;;11.55;84.94;101801.09;105888;1259;74933;-86
2023/05/04 00:18:53;;;;;;;5.50;2.60;;;;;;;11.50;85.21;101799.41;106202;1251;64672;-85
2023/05/04 00:21:20;;;;;;;2.60;2.30;;;;;;;11.45;85.34;101798.59;106357;1255;73899;-87
2023/05/04 00:23:47;;;;;;;3.60;2.60;;;;;;;11.41;86.12;101796.83;105876;1264;61713;-84
2023/05/04 00:26:13;;;;;;;4.40;2.60;;;;;;;11.38;86.98;101798.02;105976;1253;61353;-85
2023/05/04 00:28:42;;;;;;;3.70;2.50;;;;;;;11.34;87.84;101799.23;105943;1252;73773;-87
2023/05/04 00:31:09;;;;;;;3.50;2.50;;;;;;;11.32;88.23;101795.67;105896;1254;65803;-88
2023/05/04 00:33:38;;;;;;;4.80;2.60;;;;;;;11.31;88.31;101796.77;105762;1254;73543;-87
2023/05/04 00:36:05;;;;;;;3.40;2.60;;;;;;;11.30;88.46;101798.73;106378;1252;61131;-85
2023/05/04 00:38:49;;;;;;;3.50;2.20;;;;;;;11.28;87.96;101799.54;107155;1255;60484;-86
2023/05/04 00:41:16;;;;;;;6.40;3.00;;;;;;;11.26;88.15;101803.10;106253;1254;73751;-86
2023/05/04 00:43:43;;;;;;;8.30;2.80;;;;;;;11.23;87.93;101802.04;106253;1256;63813;-86
2023/05/04 00:46:10;;;;;;;3.30;2.10;;;;;;;11.18;87.66;101801.68;106483;1254;72458;-84
2023/05/04 00:48:41;;;;;;;5.90;2.90;;;;;;;11.14;87.67;101802.89;109557;1253;59383;-83
2023/05/04 00:51:09;;;;;;;6.10;2.50;;;;;;;11.11;87.77;101801.80;109383;1253;59941;-82
2023/05/04 00:53:36;;;;;;;3.40;2.50;;;;;;;11.08;87.88;101802.63;107465;1252;73556;-85
2023/05/04 00:56:04;;;;;;;6.70;3.20;;;;;;;11.06;88.52;101803.26;105870;1253;64326;-85
2023/05/04 00:58:31;;;;;;;4.20;2.50;;;;;;;11.03;88.93;101800.91;105875;1254;71924;-85
2023/05/04 01:00:58;;;;;;;3.60;2.80;;;;;;;11.01;89.22;101797.69;106602;1256;61711;-85
2023/05/04 01:03:25;;;;;;;4.60;2.80;;;;;;;11.01;89.74;101796.67;106489;1255;60652;-89
2023/05/04 01:06:24;;;;;;;7.30;2.60;;;;;;;11.00;90.07;101799.47;106097;1255;73599;-87
2023/05/04 01:09:05;;;;;;;5.00;3.10;;;;;;;10.99;90.19;101801.80;105876;1256;63661;-86
2023/05/04 01:12:01;;;;;;;7.50;3.00;;;;;;;10.97;90.35;101801.18;105938;1256;73930;-86
2023/05/04 01:14:29;;;;;;;6.90;2.80;;;;;;;10.93;90.26;101797.50;105877;1259;60361;-83
2023/05/04 01:16:57;;;;;;;4.40;3.00;;;;;;;10.88;90.17;101798.25;105937;1256;60527;-86
2023/05/04 01:19:28;;;;;;;4.60;2.70;;;;;;;10.81;90.50;101795.38;105882;1257;73738;-89
2023/05/04 01:21:55;;;;;;;5.10;3.40;;;;;;;10.76;90.93;101798.75;106012;1256;64828;-86
2023/05/04 01:24:25;;;;;;;4.80;2.80;;;;;;;10.69;91.60;101798.52;105948;1251;73725;-88
2023/05/04 01:27:30;;;;;;;5.40;3.20;;;;;;;10.63;92.26;101800.52;105924;1254;62640;-87
2023/05/04 01:32:46;;;;;;;5.50;3.10;;;;;;;10.59;93.08;101793.52;103560;1290;611989;-85
2023/05/04 01:35:13;;;;;;;3.30;2.80;;;;;;;10.57;93.32;101795.48;105378;1271;61242;-85
2023/05/04 01:37:40;;;;;;;4.70;3.40;;;;;;;10.60;93.22;101799.25;105001;1268;60085;-85
2023/05/04 01:40:08;;;;;;;6.20;3.30;;;;;;;10.60;92.99;101802.91;105141;1272;73588;-83
2023/05/04 01:42:35;;;;;;;5.90;3.20;;;;;;;10.58;92.84;101811.20;105144;1272;64958;-88
2023/05/04 01:45:03;;;;;;;3.50;3.00;;;;;;;10.56;92.75;101810.25;104663;1267;606537;-86
2023/05/04 01:47:30;;;;;;;5.00;3.20;;;;;;;10.54;92.95;101808.94;105258;1270;62912;-87
2023/05/04 01:49:57;;;;;;;6.60;3.60;;;;;;;10.51;93.50;101807.95;105215;1268;61048;-87
2023/05/04 01:52:24;;;;;;;7.60;3.80;;;;;;;10.49;93.59;101803.88;105156;1268;73235;-87
2023/05/04 01:54:51;;;;;;;5.20;3.30;;;;;;;10.48;93.84;101798.66;105553;1264;63815;-83
2023/05/04 01:57:18;;;;;;;7.20;3.70;;;;;;;10.47;94.09;101798.72;105719;1266;73685;-82
2023/05/04 01:59:45;;;;;;;13.80;5.10;;;;;;;10.45;94.53;101803.70;105608;1266;60169;-84
2023/05/04 02:02:11;;;;;;;6.40;3.90;;;;;;;10.44;94.92;101807.94;105813;1267;60351;-85
2023/05/04 02:04:42;;;;;;;5.50;3.50;;;;;;;10.41;95.06;101808.58;105580;1269;73929;-85
2023/05/04 02:07:09;;;;;;;5.10;3.30;;;;;;;10.40;95.33;101808.25;105216;1269;64867;-86
2023/05/04 02:09:35;;;;;;;6.50;4.00;;;;;;;10.38;95.23;101812.55;105423;1263;72638;-88
2023/05/04 02:12:03;;;;;;;6.50;3.90;;;;;;;10.35;95.12;101811.80;107055;1257;61445;-85
2023/05/04 02:14:29;;;;;;;7.60;4.50;;;;;;;10.31;95.14;101812.30;107463;1258;60369;-83
2023/05/04 02:16:57;;;;;;;6.70;3.30;;;;;;;10.27;95.29;101810.67;106067;1258;74071;-84
2023/05/04 02:19:23;;;;;;;6.70;4.10;;;;;;;10.25;95.58;101803.95;105692;1256;63745;-85
2023/05/04 02:21:51;;;;;;;4.50;3.90;;;;;;;10.23;96.14;101797.77;105596;1261;73753;-86
2023/05/04 02:24:21;;;;;;;5.30;3.80;;;;;;;10.20;96.73;101797.70;105533;1257;63066;-86
2023/05/04 02:26:48;;;;;;;5.10;3.60;;;;;;;10.15;97.23;101792.78;105527;1260;60023;-84
2023/05/04 02:29:14;;;;;;;5.80;3.70;;;;;;;10.14;97.28;101794.22;105362;1263;73129;-86
2023/05/04 02:31:41;;;;;;;4.40;3.70;;;;;;;10.14;97.18;101789.68;105646;1254;64102;-85
2023/05/04 02:34:08;;;;;;;5.20;3.80;;;;;;;10.14;97.21;101787.94;105868;1255;73615;-87
2023/05/04 02:36:40;;;;;;;5.90;4.30;;;;;;;10.14;97.13;101787.59;105878;1259;61318;-86
2023/05/04 02:39:08;;;;;;;6.80;4.50;;;;;;;10.15;97.26;101786.33;105561;1254;59667;-85
2023/05/04 02:41:35;;;;;;;7.40;4.60;;;;;;;10.15;97.85;101786.33;106062;1257;74097;-87
2023/05/04 02:44:02;;;;;;;8.90;4.90;;;;;;;10.16;98.18;101787.52;106207;1251;64807;-84
2023/05/04 02:46:31;;;;;;;10.20;3.90;;;;;;;10.16;98.38;101778.79;107140;1255;72660;-84
2023/05/04 02:48:58;;;;;;;4.10;3.30;;;;;;;10.16;98.46;101775.65;108893;1251;62211;-87
2023/05/04 02:51:25;;;;;;;4.50;3.90;;;;;;;10.14;98.59;101771.32;107644;1251;60066;-86
2023/05/04 02:53:52;;;;;;;11.70;4.50;;;;;;;10.14;98.82;101773.62;106381;1251;73954;-87
2023/05/04 02:56:19;;;;;;;7.30;3.50;;;;;;;10.13;98.98;101773.64;106129;1257;64522;-85
2023/05/04 02:58:46;;;;;;;4.60;4.20;;;;;;;10.15;98.98;101775.48;106489;1256;73536;-88
2023/05/04 03:01:13;;;;;;;5.20;3.90;;;;;;;10.18;99.11;101779.22;106475;1256;61296;-85
2023/05/04 03:03:40;;;;;;;21.20;7.20;;;;;;;10.19;98.94;101786.53;106215;1265;60935;-84
2023/05/04 03:06:07;;;;;;;7.60;4.70;;;;;;;10.17;98.77;101790.27;106314;1256;74205;-87
2023/05/04 03:08:34;;;;;;;6.80;4.80;;;;;;;10.12;98.52;101795.70;106204;1255;63771;-88
2023/05/04 03:11:02;;;;;;;8.90;4.50;;;;;;;10.07;98.78;101793.64;106249;1251;73692;-86
2023/05/04 03:13:29;;;;;;;4.30;3.50;;;;;;;10.05;99.08;101783.39;106078;1255;62699;-86
2023/05/04 03:15:55;;;;;;;10.80;6.50;;;;;;;10.01;99.01;101771.31;107347;1251;61295;-84
2023/05/04 03:18:23;;;;;;;6.20;4.80;;;;;;;9.96;99.18;101763.48;106329;1251;73877;-88
2023/05/04 03:20:50;;;;;;;6.80;4.90;;;;;;;9.92;99.27;101762.05;105999;1257;64870;-88
2023/05/04 03:23:18;;;;;;;6.20;4.40;;;;;;;9.90;99.51;101756.20;105935;1256;74268;-86
2023/05/04 03:25:45;;;;;;;9.10;4.30;;;;;;;9.97;100.00;101747.55;105948;1260;62929;-88
2023/05/04 03:28:13;;;;;;;12.30;4.40;;;;;;;10.07;100.00;101743.32;106796;1255;61136;-87
2023/05/04 03:30:41;;;;;;;10.00;4.30;;;;;;;10.20;100.00;101744.91;105974;1257;73957;-87
2023/05/04 03:33:09;;;;;;;7.60;4.00;;;;;;;10.34;100.00;101746.64;105915;1257;64644;-87
2023/05/04 03:35:36;;;;;;;12.70;5.00;;;;;;;10.46;100.00;101751.92;105964;1257;72419;-87
2023/05/04 03:38:05;;;;;;;11.90;5.40;;;;;;;10.55;100.00;101753.09;105984;1251;60175;-87
2023/05/04 03:40:33;;;;;;;20.10;6.40;;;;;;;10.65;100.00;101754.11;105974;1251;60807;-88
2023/05/04 03:43:00;;;;;;;16.10;5.70;;;;;;;10.71;100.00;101760.13;105945;1257;73795;-89
2023/05/04 03:45:28;;;;;;;13.50;5.70;;;;;;;10.76;100.00;101765.14;106083;1255;65111;-88
2023/05/04 03:47:56;;;;;;;10.90;5.50;;;;;;;10.82;99.99;101768.41;105900;1251;72046;-89
2023/05/04 03:50:24;;;;;;;9.90;6.20;;;;;;;10.89;100.00;101767.06;106557;1251;61958;-86
2023/05/04 03:52:51;;;;;;;17.20;6.80;;;;;;;10.98;100.00;101763.00;106279;1251;61117;-86
2023/05/04 03:55:19;;;;;;;14.00;7.40;;;;;;;11.09;100.00;101762.34;106188;1251;73997;-85
2023/05/04 03:57:48;;;;;;;17.30;6.80;;;;;;;11.23;100.00;101762.80;105902;1255;64651;-88
2023/05/04 04:00:16;;;;;;;9.70;6.60;;;;;;;11.36;100.00;101768.52;105769;1251;74446;-88
2023/05/04 04:02:46;;;;;;;16.70;7.50;;;;;;;11.49;100.00;101769.48;105764;1256;60467;-86
2023/05/04 04:05:17;;;;;;;13.70;6.70;;;;;;;11.62;99.93;101769.95;106188;1251;59834;-83
2023/05/04 04:07:44;;;;;;;12.50;7.00;;;;;;;11.77;99.50;101760.88;108502;1251;73124;-86
2023/05/04 04:10:11;;;;;;;10.60;6.70;;;;;;;12.02;98.73;101755.88;108010;1251;64013;-85
2023/05/04 04:12:39;;;;;;;14.40;8.20;;;;;;;12.42;97.71;101755.99;106139;1251;73323;-89
2023/05/04 04:15:06;;;;;;;15.20;6.60;;;;;;;12.95;96.73;101756.51;105911;1251;61241;-88
2023/05/04 04:17:33;;;;;;;16.90;7.50;;;;;;;13.46;95.66;101756.30;105891;1251;61474;-88
2023/05/04 04:20:00;;;;;;;16.90;6.90;;;;;;;13.92;94.26;101756.27;105876;1256;74145;-88
2023/05/04 04:22:27;;;;;;;12.40;7.30;;;;;;;14.30;92.29;101756.41;105987;1251;64729;-87
2023/05/04 04:24:55;;;;;;;18.80;8.50;;;;;;;14.59;90.31;101752.80;105728;1251;72538;-86
2023/05/04 04:27:22;;;;;;;15.90;8.90;;;;;;;14.84;88.69;101756.10;105866;1255;61175;-88
2023/05/04 04:29:48;;;;;;;27.90;11.00;;;;;;;15.04;87.80;101758.92;105987;1257;61032;-86
2023/05/04 04:32:15;;;;;;;22.30;9.70;;;;;;;15.22;86.77;101762.60;105912;1255;74506;-85
2023/05/04 04:34:43;;;;;;;19.00;10.00;;;;;;;15.35;84.46;101763.56;106024;1251;63846;-85
2023/05/04 04:37:10;;;;;;;21.30;11.30;;;;;;;15.45;83.51;101758.87;105809;1256;71600;-89
2023/05/04 04:39:37;;;;;;;20.20;11.20;;;;;;;15.54;83.35;101766.23;105921;1251;60506;-86
2023/05/04 04:42:04;;;;;;;36.30;14.50;;;;;;;15.63;82.62;101766.05;105882;1251;61238;-86
2023/05/04 04:44:31;;;;;;;23.40;13.60;;;;;;;15.73;82.28;101768.41;105911;1256;72918;-86
2023/05/04 04:46:58;;;;;;;24.10;13.60;;;;;;;15.88;81.29;101767.69;106010;1256;64695;-88
2023/05/04 04:49:26;;;;;;;22.20;12.50;;;;;;;16.06;79.44;101764.78;106365;1257;73398;-85
2023/05/04 04:51:53;;;;;;;27.30;13.80;;;;;;;16.31;76.94;101762.74;106764;1252;61425;-89
2023/05/04 04:54:19;;;;;;;25.00;15.20;;;;;;;16.64;76.75;101758.83;105943;1251;60187;-86
2023/05/04 04:56:46;;;;;;;36.20;15.20;;;;;;;17.03;76.22;101756.54;105908;1251;73943;-87
2023/05/04 04:59:13;;;;;;;41.00;16.20;;;;;;;17.58;76.02;101758.52;105793;1254;65178;-87
2023/05/04 05:01:41;;;;;;;39.10;16.60;;;;;;;18.29;74.84;101762.42;106016;1257;73412;-86
2023/05/04 05:04:07;;;;;;;26.80;17.40;;;;;;;19.05;71.18;101758.10;105839;1251;61345;-89
2023/05/04 05:06:35;;;;;;;37.60;19.30;;;;;;;19.79;63.30;101756.19;105791;1251;61591;-88
2023/05/04 05:09:02;;;;;;;25.30;13.90;;;;;;;20.50;53.88;101750.16;105959;1251;72792;-86
2023/05/04 05:11:29;;;;;;;22.50;12.70;;;;;;;21.21;47.92;101751.09;106039;1251;64882;-88
2023/05/04 05:13:58;;;;;;;27.40;15.00;;;;;;;21.84;46.53;101749.05;106018;1252;72741;-89
2023/05/04 05:16:25;;;;;;;27.90;15.50;;;;;;;22.43;44.92;101752.98;105721;1254;61118;-89
2023/05/04 05:18:52;;;;;;;24.20;15.10;;;;;;;22.95;43.65;101754.73;105973;1255;60570;-90
2023/05/04 05:21:19;;;;;;;22.50;14.50;;;;;;;23.45;41.26;101758.55;106331;1251;74122;-90
2023/05/04 05:23:46;;;;;;;25.80;12.90;;;;;;;23.90;40.32;101761.35;106155;1255;65249;-86
2023/05/04 05:26:13;;;;;;;20.20;12.80;;;;;;;24.33;38.61;101759.71;108194;1251;73665;-86
2023/05/04 05:28:40;;;;;;;20.70;13.60;;;;;;;24.79;37.52;101760.65;109054;1251;60444;-88
2023/05/04 05:31:08;;;;;;;25.80;14.00;;;;;;;25.15;36.77;101765.04;106314;1256;61801;-88
2023/05/04 05:33:35;;;;;;;21.50;11.90;;;;;;;25.47;35.88;101774.20;106300;1255;73009;-87
2023/05/04 05:36:02;;;;;;;22.40;10.10;;;;;;;25.77;34.72;101779.48;106285;1251;64592;-86
2023/05/04 05:38:30;;;;;;;11.60;7.00;;;;;;;26.09;34.08;101778.98;106942;1251;73823;-86
2023/05/04 05:40:57;;;;;;;23.00;7.60;;;;;;;26.43;33.53;101776.80;107635;1251;60481;-88
2023/05/04 05:43:24;;;;;;;10.40;5.30;;;;;;;26.73;33.07;101773.52;107836;1251;60507;-87
2023/05/04 05:45:52;;;;;;;10.30;6.50;;;;;;;27.02;32.56;101772.36;109556;1251;73837;-86
2023/05/04 05:48:19;;;;;;;12.10;6.00;;;;;;;27.29;32.28;101774.55;109815;1251;63628;-88
2023/05/04 05:50:46;;;;;;;6.20;4.80;;;;;;;27.56;31.76;101779.48;109037;1251;72843;-87
2023/05/04 05:53:14;;;;;;;9.50;4.20;;;;;;;27.77;30.81;101782.19;107081;1251;60830;-86
2023/05/04 05:55:41;;;;;;;8.60;3.70;;;;;;;27.90;29.84;101775.46;107147;1251;61096;-86
2023/05/04 05:58:08;;;;;;;9.80;4.10;;;;;;;27.98;29.36;101771.91;106846;1251;74903;-89
2023/05/04 06:00:43;;;;;;;9.10;4.50;;;;;;;27.99;29.11;101777.09;106681;1254;66757;-88
2023/05/04 06:03:10;;;;;;;9.40;4.80;;;;;;;28.03;28.61;101773.64;106457;1257;73268;-87
2023/05/04 06:05:37;;;;;;;10.20;4.30;;;;;;;28.07;28.49;101773.46;106051;1258;61359;-89
2023/05/04 06:08:04;;;;;;;10.10;5.10;;;;;;;28.11;28.95;101773.00;106453;1254;60947;-87
2023/05/04 06:10:32;;;;;;;12.00;6.60;;;;;;;28.11;28.97;101774.98;106026;1257;73512;-87
2023/05/04 06:13:00;;;;;;;12.60;5.90;;;;;;;28.08;27.87;101773.33;106469;1258;64730;-88
2023/05/04 06:15:27;;;;;;;9.80;6.00;;;;;;;28.04;27.95;101772.34;106626;1257;73435;-86
2023/05/04 06:17:55;;;;;;;14.80;6.60;;;;;;;28.16;28.35;101773.13;106378;1253;60461;-87
2023/05/04 06:20:22;;;;;;;16.30;9.60;;;;;;;28.34;28.09;101776.02;106235;1256;61399;-86
2023/05/04 06:22:49;;;;;;;18.70;10.80;;;;;;;28.52;27.82;101779.94;106273;1252;73796;-89
2023/05/04 06:25:16;;;;;;;23.80;15.60;;;;;;;28.69;28.05;101781.34;106455;1253;63914;-88
2023/05/04 06:27:43;;;;;;;25.20;15.50;;;;;;;28.87;27.74;101777.94;106224;1260;73666;-85
2023/05/04 06:30:10;;;;;;;21.60;13.10;;;;;;;29.05;28.17;101778.22;106488;1253;61127;-87
2023/05/04 06:32:38;;;;;;;22.40;12.30;;;;;;;29.25;27.98;101778.52;106461;1253;61950;-87
2023/05/04 06:35:07;;;;;;;18.50;12.70;;;;;;;29.46;27.38;101781.90;106252;1257;74941;-85
2023/05/04 06:37:35;;;;;;;19.20;11.10;;;;;;;29.64;26.30;101783.14;106276;1257;64761;-88
2023/05/04 06:40:03;;;;;;;18.60;11.40;;;;;;;29.77;26.38;101780.98;106380;1254;73365;-87
2023/05/04 06:42:32;;;;;;;22.40;12.00;;;;;;;29.89;26.41;101779.94;106683;1253;61618;-90
2023/05/04 06:44:59;;;;;;;28.10;12.30;;;;;;;30.03;26.71;101782.48;107188;1260;60464;-85
2023/05/04 06:47:26;;;;;;;17.40;9.70;;;;;;;30.21;26.59;101774.23;109318;1252;74696;-87
2023/05/04 06:49:53;;;;;;;21.50;11.50;;;;;;;30.38;25.91;101773.98;107094;1253;64645;-87
2023/05/04 06:52:20;;;;;;;17.90;10.30;;;;;;;30.44;25.91;101770.11;106902;1257;74031;-86
2023/05/04 06:54:47;;;;;;;16.80;8.80;;;;;;;30.50;25.81;101766.09;107032;1253;61367;-87
2023/05/04 06:57:14;;;;;;;18.30;9.20;;;;;;;30.55;25.89;101762.62;106677;1255;61486;-86
2023/05/04 06:59:42;;;;;;;13.60;8.80;;;;;;;30.75;25.76;101763.02;107001;1252;73548;-88
2023/05/04 07:02:09;;;;;;;16.90;7.90;;;;;;;30.94;25.64;101767.17;106890;1257;64749;-89
2023/05/04 07:04:37;;;;;;;12.10;7.50;;;;;;;31.10;25.44;101765.09;106947;1253;72455;-89
2023/05/04 07:07:04;;;;;;;17.70;8.70;;;;;;;31.28;25.41;101764.65;107079;1252;60492;-88
2023/05/04 07:09:31;;;;;;;13.50;8.50;;;;;;;31.45;24.96;101767.71;106773;1253;61344;-89
2023/05/04 07:11:59;;;;;;;14.00;8.60;;;;;;;31.53;24.22;101767.33;105915;1253;73800;-89
2023/05/04 07:14:26;;;;;;;11.50;8.00;;;;;;;31.49;24.25;101768.85;106185;1254;64731;-90
2023/05/04 07:16:53;;;;;;;15.10;8.40;;;;;;;31.48;23.73;101768.09;105971;1256;73606;-87
2023/05/04 07:19:20;;;;;;;18.50;9.10;;;;;;;31.41;23.85;101767.77;106098;1253;61377;-88
2023/05/04 07:21:47;;;;;;;15.00;9.50;;;;;;;31.32;24.32;101759.70;106235;1254;60478;-90
2023/05/04 07:24:14;;;;;;;17.00;7.80;;;;;;;31.29;23.94;101762.60;105937;1257;74663;-88
2023/05/04 07:26:41;;;;;;;10.70;7.40;;;;;;;31.13;23.79;101762.45;105907;1254;64295;-86
2023/05/04 07:29:08;;;;;;;14.00;8.40;;;;;;;30.98;23.48;101764.08;105955;1254;72544;-89
2023/05/04 07:31:37;;;;;;;10.70;7.60;;;;;;;30.67;23.61;101759.63;106005;1257;61116;-89
2023/05/04 07:34:04;;;;;;;12.60;7.40;;;;;;;30.32;24.05;101758.98;105857;1254;61181;-87
2023/05/04 07:36:34;;;;;;;15.10;8.60;;;;;;;30.12;24.65;101760.61;105790;1257;74678;-91
2023/05/04 07:39:01;;;;;;;15.50;7.40;;;;;;;30.08;25.18;101758.03;105770;1253;63691;-88
2023/05/04 07:41:28;;;;;;;14.70;8.10;;;;;;;30.23;26.20;101756.34;105800;1253;71266;-90
2023/05/04 07:43:55;;;;;;;17.60;10.10;;;;;;;30.45;25.68;101751.77;105710;1254;60441;-88
2023/05/04 07:46:22;;;;;;;14.60;8.40;;;;;;;30.69;24.55;101750.09;106225;1253;61288;-85
2023/05/04 07:48:49;;;;;;;16.60;7.30;;;;;;;30.91;24.42;101745.36;106105;1253;73953;-86
2023/05/04 07:51:17;;;;;;;18.50;14.80;;;;;;;30.89;24.51;101740.73;107219;1252;65588;-84
2023/05/04 07:53:46;;;;;;;20.60;13.10;;;;;;;30.86;24.36;101743.31;108678;1253;73238;-84
2023/05/04 07:56:13;;;;;;;12.50;8.90;;;;;;;30.66;24.42;101745.80;107832;1253;60435;-84
2023/05/04 07:58:40;;;;;;;18.40;8.00;;;;;;;30.51;24.78;101740.17;107612;1253;60336;-87
2023/05/04 08:01:07;;;;;;;12.40;7.50;;;;;;;30.55;25.14;101736.69;107370;1253;74801;-84
2023/05/04 08:03:35;;;;;;;9.60;5.80;;;;;;;30.48;24.71;101731.47;108892;1252;63081;-86
2023/05/04 08:06:02;;;;;;;10.10;5.10;;;;;;;30.45;25.03;101736.98;109349;1253;72651;-88
2023/05/04 08:08:29;;;;;;;6.20;4.60;;;;;;;30.57;25.72;101741.02;107841;1253;60547;-87
2023/05/04 08:10:56;;;;;;;8.30;4.40;;;;;;;30.78;24.91;101740.10;106302;1253;61186;-87
2023/05/04 08:13:49;;;;;;;15.70;7.80;;;;;;;31.06;24.98;101741.93;106046;1253;74848;-87
2023/05/04 08:16:16;;;;;;;3.40;3.10;;;;;;;31.13;24.33;101741.48;105937;1253;63930;-88
2023/05/04 08:18:43;;;;;;;4.50;1.50;;;;;;;31.01;23.96;101737.00;106187;1252;73687;-89
2023/05/04 08:21:11;;;;;;;3.10;2.10;;;;;;;30.83;23.82;101736.82;106153;1253;60528;-88
2023/05/04 08:23:38;;;;;;;1.80;1.40;;;;;;;30.77;23.52;101735.32;106521;1254;60554;-89
2023/05/04 08:26:05;;;;;;;7.20;1.00;;;;;;;30.83;23.33;101728.98;106922;1253;74836;-89
2023/05/04 08:28:44;;;;;;;4.90;1.20;;;;;;;30.81;23.64;101732.89;106528;1253;65806;-90
2023/05/04 08:31:12;;;;;;;2.70;1.70;;;;;;;30.90;23.58;101732.23;106571;1253;73788;-89
2023/05/04 08:33:39;;;;;;;3.50;1.10;;;;;;;30.99;23.27;101736.57;106160;1253;60512;-89
2023/05/04 08:36:07;;;;;;;2.30;0.80;;;;;;;31.07;23.09;101731.73;106272;1253;60453;-90
2023/05/04 08:38:35;;;;;;;3.10;1.10;;;;;;;31.13;22.88;101731.55;106512;1252;74835;-90
2023/05/04 08:41:03;;;;;;;5.10;1.00;;;;;;;31.29;22.91;101733.33;106327;1253;63718;-88
2023/05/04 08:43:34;;;;;;;2.60;1.20;;;;;;;31.44;23.54;101732.57;106547;1253;73701;-90
2023/05/04 08:46:02;;;;;;;1.70;1.00;;;;;;;31.68;23.50;101727.77;106130;1253;61404;-92
2023/05/04 08:48:30;;;;;;;2.60;1.50;;;;;;;31.94;22.53;101724.39;106158;1253;61107;-89
2023/05/04 08:50:57;;;;;;;3.80;1.50;;;;;;;32.01;21.86;101717.58;106326;1257;74793;-90
2023/05/04 08:53:24;;;;;;;2.40;1.00;;;;;;;32.00;22.32;101712.57;106208;1253;64931;-88
2023/05/04 08:55:51;;;;;;;3.60;1.10;;;;;;;31.98;21.93;101709.95;105977;1252;72662;-90
2023/05/04 08:58:19;;;;;;;1.60;1.10;;;;;;;31.96;22.58;101709.71;106148;1257;61753;-92
2023/05/04 09:00:45;;;;;;;4.10;2.50;;;;;;;31.90;21.76;101707.31;105646;1253;61174;-91
2023/05/04 09:03:12;;;;;;;5.10;1.00;;;;;;;31.70;21.36;101707.65;105911;1253;74697;-89
2023/05/04 09:05:44;;;;;;;1.60;1.00;;;;;;;31.46;21.53;101707.39;106492;1256;64778;-90
2023/05/04 09:08:11;;;;;;;2.60;0.90;;;;;;;31.40;23.20;101703.98;106101;1253;73853;-91
2023/05/04 09:10:38;;;;;;;1.60;0.90;;;;;;;31.49;23.65;101703.61;106141;1255;61441;-89
2023/05/04 09:13:06;;;;;;;4.10;2.50;;;;;;;31.49;21.96;101700.69;106048;1253;61605;-88
2023/05/04 09:15:33;;;;;;;1.80;0.80;;;;;;;31.37;22.63;101698.49;105844;1253;73698;-91
2023/05/04 09:18:02;;;;;;;3.30;1.20;;;;;;;31.18;22.70;101701.80;105902;1253;64119;-90
2023/05/04 09:20:30;;;;;;;4.30;1.60;;;;;;;31.02;23.13;101697.60;105959;1254;73334;-91
2023/05/04 09:26:46;;;;;;;1.00;0.80;;;;;;;30.61;23.87;101692.89;85181;1270;981973;31
2023/05/04 09:29:13;;;;;;;4.40;0.60;;;;;;;30.57;23.36;101688.88;104483;1277;75907;-90
2023/05/04 09:31:46;;;;;;;2.20;1.10;;;;;;;30.63;22.65;101686.95;104455;1283;64752;-89
2023/05/04 09:34:14;;;;;;;3.00;0.80;;;;;;;30.73;23.06;101687.84;104600;1277;72696;-87
2023/05/04 09:36:41;;;;;;;2.00;0.90;;;;;;;30.91;22.45;101683.13;104932;1278;60622;-89
2023/05/04 09:39:11;;;;;;;2.20;0.70;;;;;;;30.99;21.95;101682.88;103793;1293;60732;-90
2023/05/04 09:41:38;;;;;;;2.50;0.70;;;;;;;31.06;23.08;101685.98;103836;1283;74824;-90
2023/05/04 09:44:17;;;;;;;1.80;1.00;;;;;;;31.10;22.15;101679.70;104039;1282;65165;-90
2023/05/04 09:46:57;;;;;;;3.80;2.20;;;;;;;30.97;22.45;101677.48;103996;1276;73673;-90
2023/05/04 09:49:35;;;;;;;2.50;1.30;;;;;;;30.99;23.21;101682.71;103972;1282;62174;-90
2023/05/04 09:52:05;;;;;;;3.10;0.90;;;;;;;31.00;22.39;101680.09;104295;1282;61544;-91
2023/05/04 09:54:34;;;;;;;1.50;0.70;;;;;;;30.92;22.70;101677.98;105111;1282;74064;-90
2023/05/04 09:57:13;;;;;;;1.40;0.90;;;;;;;30.85;22.88;101677.86;105042;1279;64623;-87
2023/05/04 09:59:41;;;;;;;2.90;0.90;;;;;;;30.89;23.50;101679.77;104783;1281;73749;-91
2023/05/04 10:02:08;;;;;;;0.90;0.60;;;;;;;30.99;23.99;101678.39;104655;1282;60597;-89
2023/05/04 10:04:51;;;;;;;3.40;1.10;;;;;;;31.05;23.11;101673.91;104207;1281;61930;-89
2023/05/04 10:07:18;;;;;;;3.60;0.80;;;;;;;31.07;22.40;101673.20;104707;1276;74432;-89
2023/05/04 10:09:45;;;;;;;7.90;1.30;;;;;;;31.04;22.19;101675.36;104616;1276;64439;-89
2023/05/04 10:12:13;;;;;;;2.10;0.90;;;;;;;30.87;22.40;101673.44;104665;1273;73657;-91
2023/05/04 10:14:41;;;;;;;4.20;1.40;;;;;;;30.69;22.53;101669.90;104773;1276;61441;-90
2023/05/04 10:17:12;;;;;;;3.60;0.80;;;;;;;30.49;22.98;101665.75;104827;1275;60475;-91
2023/05/04 10:19:56;;;;;;;1.10;0.90;;;;;;;30.37;22.89;101660.59;104789;1276;75213;-91
2023/05/04 10:22:32;;;;;;;2.70;0.80;;;;;;;30.36;23.14;101661.98;105016;1276;63928;-88
2023/05/04 10:25:41;;;;;;;2.40;1.10;;;;;;;30.33;23.51;101657.26;105420;1273;72706;-89
2023/05/04 10:28:29;;;;;;;3.40;1.20;;;;;;;30.38;24.04;101654.17;104587;1276;60465;-92
2023/05/04 10:30:57;;;;;;;1.20;0.60;;;;;;;30.62;24.10;101655.15;104753;1274;61523;-88
2023/05/04 10:33:42;;;;;;;3.30;1.00;;;;;;;30.85;22.93;101652.78;104828;1275;73722;-89
2023/05/04 10:36:09;;;;;;;4.70;1.70;;;;;;;31.07;22.91;101655.11;104738;1273;64692;-88
2023/05/04 10:38:37;;;;;;;3.60;1.20;;;;;;;31.19;22.58;101658.86;104774;1276;72597;-89
2023/05/04 10:41:15;;;;;;;3.10;1.50;;;;;;;31.32;22.56;101658.95;104903;1273;61343;-89
2023/05/04 10:43:47;;;;;;;3.10;0.60;;;;;;;31.45;22.14;101659.84;106493;1273;60440;-88
2023/05/04 10:46:20;;;;;;;1.80;0.80;;;;;;;31.58;23.28;101654.27;108203;1272;73902;-88
2023/05/04 10:48:48;;;;;;;1.10;0.60;;;;;;;31.69;22.56;101651.86;105260;1271;63949;-89
2023/05/04 10:51:25;;;;;;;2.40;0.90;;;;;;;31.76;22.70;101646.63;104866;1287;73361;-91
2023/05/04 10:54:05;;;;;;;1.10;0.80;;;;;;;31.86;22.51;101646.24;105277;1273;61055;-88
2023/05/04 10:56:32;;;;;;;5.50;0.60;;;;;;;31.97;22.85;101644.59;104598;1276;60693;-87
2023/05/04 10:59:07;;;;;;;0.60;0.50;;;;;;;32.10;21.89;101634.83;104749;1271;74934;-88
2023/05/04 11:01:43;;;;;;;2.30;1.30;;;;;;;32.01;21.75;101629.02;104347;1273;64450;-89
2023/05/04 11:04:22;;;;;;;3.00;1.10;;;;;;;31.99;21.32;101629.56;104532;1275;73600;-88
2023/05/04 11:06:59;;;;;;;1.40;0.70;;;;;;;32.02;21.26;101625.02;104835;1275;61429;-90
2023/05/04 11:09:27;;;;;;;3.00;1.10;;;;;;;32.08;21.58;101623.23;104829;1273;60574;-87
2023/05/04 11:11:55;;;;;;;1.60;0.80;;;;;;;32.08;21.95;101619.67;105892;1274;75068;-89
2023/05/04 11:14:26;;;;;;;1.10;0.80;;;;;;;32.02;21.83;101610.03;105245;1274;65163;-90
2023/05/04 11:17:05;;;;;;;1.80;0.90;;;;;;;31.95;21.56;101605.39;104935;1276;72504;-87
2023/05/04 11:19:52;;;;;;;1.60;1.00;;;;;;;31.77;20.84;101606.38;105013;1272;61820;-88
2023/05/04 11:22:19;;;;;;;2.80;0.90;;;;;;;31.40;20.57;101600.86;104771;1275;60482;-87
2023/05/04 11:24:49;;;;;;;4.30;0.80;;;;;;;30.82;21.30;101593.85;104642;1276;74706;-88
2023/05/04 11:27:34;;;;;;;5.00;0.90;;;;;;;30.33;21.83;101583.34;104726;1274;64189;-87